sensor_id;sensor_type;location;lat;lon;timestamp;P1;durP1;ratioP1;P2;durP2;ratioP2
1206;SDS011;593;53.184;8.216;2023-08-30T00:02:12;4.20;;;3.80;;
1206;SDS011;593;53.184;8.216;2023-08-30T00:04:37;3.53;;;3.23;;
1206;SDS011;593;53.184;8.216;2023-08-30T00:07:03;4.40;;;4.00;;
1206;SDS011;593;53.184;8.216;2023-08-30T00:09:28;3.60;;;3.30;;
1206;SDS011;593;53.184;8.216;2023-08-30T00:11:53;4.40;;;4.10;;
1206;SDS011;593;53.184;8.216;2023-08-30T00:14:19;4.20;;;3.90;;
1206;SDS011;593;53.184;8.216;2023-08-30T00:16:44;3.63;;;3.33;;
1206;SDS011;593;53.184;8.216;2023-08-30T00:19:09;3.50;;;3.23;;
1206;SDS011;593;53.184;8.216;2023-08-30T00:21:35;4.20;;;3.90;;
1206;SDS011;593;53.184;8.216;2023-08-30T00:24:00;3.70;;;3.40;;
1206;SDS011;593;53.184;8.216;2023-08-30T00:26:25;4.27;;;3.87;;
1206;SDS011;593;53.184;8.216;2023-08-30T00:28:51;5.20;;;3.50;;
1206;SDS011;593;53.184;8.216;2023-08-30T00:31:16;3.90;;;3.63;;
1206;SDS011;593;53.184;8.216;2023-08-30T00:33:41;4.10;;;3.80;;
1206;SDS011;593;53.184;8.216;2023-08-30T00:36:07;4.40;;;4.00;;
1206;SDS011;593;53.184;8.216;2023-08-30T00:38:32;4.60;;;4.20;;
1206;SDS011;593;53.184;8.216;2023-08-30T00:40:58;4.73;;;4.30;;
1206;SDS011;593;53.184;8.216;2023-08-30T00:43:24;4.87;;;4.57;;
1206;SDS011;593;53.184;8.216;2023-08-30T00:45:49;4.07;;;3.73;;
1206;SDS011;593;53.184;8.216;2023-08-30T00:48:15;4.10;;;3.70;;
1206;SDS011;593;53.184;8.216;2023-08-30T00:50:44;4.90;;;4.50;;
1206;SDS011;593;53.184;8.216;2023-08-30T00:53:10;5.03;;;4.53;;
1206;SDS011;593;53.184;8.216;2023-08-30T00:55:36;4.80;;;4.37;;
1206;SDS011;593;53.184;8.216;2023-08-30T00:58:02;3.53;;;3.20;;
1206;SDS011;593;53.184;8.216;2023-08-30T01:00:31;3.50;;;3.20;;
1206;SDS011;593;53.184;8.216;2023-08-30T01:02:58;4.40;;;3.83;;
1206;SDS011;593;53.184;8.216;2023-08-30T01:05:24;5.03;;;3.30;;
1206;SDS011;593;53.184;8.216;2023-08-30T01:07:52;4.17;;;3.00;;
1206;SDS011;593;53.184;8.216;2023-08-30T01:10:18;3.60;;;3.30;;
1206;SDS011;593;53.184;8.216;2023-08-30T01:12:49;3.50;;;3.20;;
1206;SDS011;593;53.184;8.216;2023-08-30T01:15:21;4.27;;;2.57;;
1206;SDS011;593;53.184;8.216;2023-08-30T01:17:48;3.83;;;3.53;;
1206;SDS011;593;53.184;8.216;2023-08-30T01:20:16;3.93;;;3.63;;
1206;SDS011;593;53.184;8.216;2023-08-30T01:25:27;3.83;;;3.53;;
1206;SDS011;593;53.184;8.216;2023-08-30T01:28:01;3.67;;;3.10;;
1206;SDS011;593;53.184;8.216;2023-08-30T01:30:31;3.60;;;3.30;;
1206;SDS011;593;53.184;8.216;2023-08-30T01:32:59;3.13;;;2.90;;
1206;SDS011;593;53.184;8.216;2023-08-30T01:35:26;3.83;;;3.53;;
1206;SDS011;593;53.184;8.216;2023-08-30T01:37:57;3.50;;;3.30;;
1206;SDS011;593;53.184;8.216;2023-08-30T01:40:23;3.80;;;3.50;;
1206;SDS011;593;53.184;8.216;2023-08-30T01:42:49;2.83;;;2.60;;
1206;SDS011;593;53.184;8.216;2023-08-30T01:45:15;3.97;;;2.73;;
1206;SDS011;593;53.184;8.216;2023-08-30T01:47:42;4.00;;;3.50;;
1206;SDS011;593;53.184;8.216;2023-08-30T01:50:09;4.20;;;3.80;;
1206;SDS011;593;53.184;8.216;2023-08-30T01:52:35;4.20;;;3.90;;
1206;SDS011;593;53.184;8.216;2023-08-30T01:55:02;4.27;;;3.87;;
1206;SDS011;593;53.184;8.216;2023-08-30T01:57:28;3.27;;;3.07;;
1206;SDS011;593;53.184;8.216;2023-08-30T01:59:53;4.33;;;3.93;;
1206;SDS011;593;53.184;8.216;2023-08-30T02:02:18;4.80;;;3.27;;
1206;SDS011;593;53.184;8.216;2023-08-30T02:04:44;4.20;;;3.50;;
1206;SDS011;593;53.184;8.216;2023-08-30T02:07:26;3.90;;;3.60;;
1206;SDS011;593;53.184;8.216;2023-08-30T02:09:57;4.00;;;3.60;;
1206;SDS011;593;53.184;8.216;2023-08-30T02:12:27;4.33;;;4.03;;
1206;SDS011;593;53.184;8.216;2023-08-30T02:14:59;5.10;;;4.70;;
1206;SDS011;593;53.184;8.216;2023-08-30T02:17:28;3.90;;;3.60;;
1206;SDS011;593;53.184;8.216;2023-08-30T02:19:55;4.00;;;3.63;;
1206;SDS011;593;53.184;8.216;2023-08-30T02:22:20;5.03;;;4.03;;
1206;SDS011;593;53.184;8.216;2023-08-30T02:24:45;4.03;;;3.83;;
1206;SDS011;593;53.184;8.216;2023-08-30T02:27:11;5.80;;;4.03;;
1206;SDS011;593;53.184;8.216;2023-08-30T02:29:36;4.80;;;4.40;;
1206;SDS011;593;53.184;8.216;2023-08-30T02:32:02;4.03;;;3.73;;
1206;SDS011;593;53.184;8.216;2023-08-30T02:34:27;5.07;;;4.67;;
1206;SDS011;593;53.184;8.216;2023-08-30T02:36:52;6.33;;;5.83;;
1206;SDS011;593;53.184;8.216;2023-08-30T02:39:18;5.47;;;4.97;;
1206;SDS011;593;53.184;8.216;2023-08-30T02:41:44;4.57;;;4.20;;
1206;SDS011;593;53.184;8.216;2023-08-30T02:44:11;6.03;;;5.07;;
1206;SDS011;593;53.184;8.216;2023-08-30T02:46:36;5.10;;;4.60;;
1206;SDS011;593;53.184;8.216;2023-08-30T02:49:02;4.77;;;4.37;;
1206;SDS011;593;53.184;8.216;2023-08-30T02:51:28;5.50;;;5.00;;
1206;SDS011;593;53.184;8.216;2023-08-30T02:53:53;6.20;;;5.70;;
1206;SDS011;593;53.184;8.216;2023-08-30T02:56:19;5.37;;;4.93;;
1206;SDS011;593;53.184;8.216;2023-08-30T02:58:47;5.93;;;5.30;;
1206;SDS011;593;53.184;8.216;2023-08-30T03:01:12;5.70;;;5.20;;
1206;SDS011;593;53.184;8.216;2023-08-30T03:03:38;6.17;;;5.53;;
1206;SDS011;593;53.184;8.216;2023-08-30T03:06:03;5.83;;;5.33;;
1206;SDS011;593;53.184;8.216;2023-08-30T03:08:29;5.73;;;5.33;;
1206;SDS011;593;53.184;8.216;2023-08-30T03:10:54;5.50;;;5.00;;
1206;SDS011;593;53.184;8.216;2023-08-30T03:13:19;6.00;;;5.50;;
1206;SDS011;593;53.184;8.216;2023-08-30T03:15:45;6.80;;;6.20;;
1206;SDS011;593;53.184;8.216;2023-08-30T03:18:10;7.00;;;6.40;;
1206;SDS011;593;53.184;8.216;2023-08-30T03:20:35;8.50;;;6.57;;
1206;SDS011;593;53.184;8.216;2023-08-30T03:23:01;7.17;;;6.47;;
1206;SDS011;593;53.184;8.216;2023-08-30T03:25:29;7.13;;;6.50;;
1206;SDS011;593;53.184;8.216;2023-08-30T03:27:55;7.63;;;6.93;;
1206;SDS011;593;53.184;8.216;2023-08-30T03:30:20;6.63;;;6.00;;
1206;SDS011;593;53.184;8.216;2023-08-30T03:32:46;7.00;;;6.30;;
1206;SDS011;593;53.184;8.216;2023-08-30T03:35:11;7.93;;;7.20;;
1206;SDS011;593;53.184;8.216;2023-08-30T03:37:37;7.40;;;6.73;;
1206;SDS011;593;53.184;8.216;2023-08-30T03:40:02;7.67;;;6.37;;
1206;SDS011;593;53.184;8.216;2023-08-30T03:42:29;6.63;;;6.03;;
1206;SDS011;593;53.184;8.216;2023-08-30T03:44:55;7.20;;;6.60;;
1206;SDS011;593;53.184;8.216;2023-08-30T03:47:20;6.97;;;6.33;;
1206;SDS011;593;53.184;8.216;2023-08-30T03:49:45;7.33;;;6.60;;
1206;SDS011;593;53.184;8.216;2023-08-30T03:52:11;9.90;;;7.60;;
1206;SDS011;593;53.184;8.216;2023-08-30T03:54:38;7.80;;;7.10;;
1206;SDS011;593;53.184;8.216;2023-08-30T03:57:03;7.93;;;7.23;;
1206;SDS011;593;53.184;8.216;2023-08-30T03:59:29;7.50;;;6.90;;
1206;SDS011;593;53.184;8.216;2023-08-30T04:01:54;7.33;;;6.67;;
1206;SDS011;593;53.184;8.216;2023-08-30T04:04:19;7.70;;;7.00;;
1206;SDS011;593;53.184;8.216;2023-08-30T04:06:45;6.43;;;5.93;;
1206;SDS011;593;53.184;8.216;2023-08-30T04:09:10;7.47;;;6.70;;
1206;SDS011;593;53.184;8.216;2023-08-30T04:11:35;7.67;;;6.90;;
1206;SDS011;593;53.184;8.216;2023-08-30T04:14:01;8.13;;;7.50;;
1206;SDS011;593;53.184;8.216;2023-08-30T04:16:27;8.83;;;8.23;;
1206;SDS011;593;53.184;8.216;2023-08-30T04:18:53;8.30;;;7.50;;
1206;SDS011;593;53.184;8.216;2023-08-30T04:21:19;9.30;;;7.93;;
1206;SDS011;593;53.184;8.216;2023-08-30T04:23:44;7.97;;;7.27;;
1206;SDS011;593;53.184;8.216;2023-08-30T04:26:09;6.83;;;6.33;;
1206;SDS011;593;53.184;8.216;2023-08-30T04:28:34;8.23;;;7.50;;
1206;SDS011;593;53.184;8.216;2023-08-30T04:31:00;9.17;;;8.37;;
1206;SDS011;593;53.184;8.216;2023-08-30T04:33:26;8.93;;;8.10;;
1206;SDS011;593;53.184;8.216;2023-08-30T04:35:51;8.10;;;7.40;;
1206;SDS011;593;53.184;8.216;2023-08-30T04:38:17;8.87;;;8.07;;
1206;SDS011;593;53.184;8.216;2023-08-30T04:40:43;9.20;;;8.30;;
1206;SDS011;593;53.184;8.216;2023-08-30T04:43:08;8.33;;;7.50;;
1206;SDS011;593;53.184;8.216;2023-08-30T04:45:34;8.37;;;7.57;;
1206;SDS011;593;53.184;8.216;2023-08-30T04:48:00;9.00;;;8.10;;
1206;SDS011;593;53.184;8.216;2023-08-30T04:50:25;8.80;;;7.90;;
1206;SDS011;593;53.184;8.216;2023-08-30T04:52:50;8.27;;;7.43;;
1206;SDS011;593;53.184;8.216;2023-08-30T04:55:16;8.17;;;7.50;;
1206;SDS011;593;53.184;8.216;2023-08-30T04:57:41;9.13;;;8.20;;
1206;SDS011;593;53.184;8.216;2023-08-30T05:00:10;8.10;;;7.30;;
1206;SDS011;593;53.184;8.216;2023-08-30T05:02:36;7.77;;;7.07;;
1206;SDS011;593;53.184;8.216;2023-08-30T05:05:02;8.50;;;7.70;;
1206;SDS011;593;53.184;8.216;2023-08-30T05:07:27;7.73;;;7.03;;
1206;SDS011;593;53.184;8.216;2023-08-30T05:09:53;8.90;;;8.10;;
1206;SDS011;593;53.184;8.216;2023-08-30T05:12:18;8.60;;;7.80;;
1206;SDS011;593;53.184;8.216;2023-08-30T05:14:44;8.33;;;7.40;;
1206;SDS011;593;53.184;8.216;2023-08-30T05:17:12;8.37;;;7.57;;
1206;SDS011;593;53.184;8.216;2023-08-30T05:19:37;8.93;;;8.03;;
1206;SDS011;593;53.184;8.216;2023-08-30T05:22:03;9.40;;;7.70;;
1206;SDS011;593;53.184;8.216;2023-08-30T05:24:28;9.63;;;8.70;;
1206;SDS011;593;53.184;8.216;2023-08-30T05:26:54;8.60;;;7.67;;
1206;SDS011;593;53.184;8.216;2023-08-30T05:29:19;7.80;;;7.10;;
1206;SDS011;593;53.184;8.216;2023-08-30T05:31:44;9.73;;;8.67;;
1206;SDS011;593;53.184;8.216;2023-08-30T05:34:10;10.20;;;8.00;;
1206;SDS011;593;53.184;8.216;2023-08-30T05:36:36;8.33;;;7.50;;
1206;SDS011;593;53.184;8.216;2023-08-30T05:39:01;8.90;;;8.20;;
1206;SDS011;593;53.184;8.216;2023-08-30T05:41:28;8.93;;;8.03;;
1206;SDS011;593;53.184;8.216;2023-08-30T05:43:53;8.83;;;8.03;;
1206;SDS011;593;53.184;8.216;2023-08-30T05:46:19;9.20;;;8.20;;
1206;SDS011;593;53.184;8.216;2023-08-30T05:48:44;10.50;;;9.60;;
1206;SDS011;593;53.184;8.216;2023-08-30T05:51:09;9.23;;;8.43;;
1206;SDS011;593;53.184;8.216;2023-08-30T05:53:35;9.07;;;8.17;;
1206;SDS011;593;53.184;8.216;2023-08-30T05:56:00;9.90;;;8.30;;
1206;SDS011;593;53.184;8.216;2023-08-30T05:58:25;9.37;;;8.27;;
1206;SDS011;593;53.184;8.216;2023-08-30T06:00:51;8.83;;;7.90;;
1206;SDS011;593;53.184;8.216;2023-08-30T06:03:16;9.50;;;8.60;;
1206;SDS011;593;53.184;8.216;2023-08-30T06:05:42;9.30;;;8.40;;
1206;SDS011;593;53.184;8.216;2023-08-30T06:08:08;9.17;;;8.10;;
1206;SDS011;593;53.184;8.216;2023-08-30T06:10:34;11.10;;;9.20;;
1206;SDS011;593;53.184;8.216;2023-08-30T06:13:00;9.20;;;8.40;;
1206;SDS011;593;53.184;8.216;2023-08-30T06:15:26;10.27;;;9.27;;
1206;SDS011;593;53.184;8.216;2023-08-30T06:17:51;10.50;;;9.50;;
1206;SDS011;593;53.184;8.216;2023-08-30T06:20:17;9.80;;;8.93;;
1206;SDS011;593;53.184;8.216;2023-08-30T06:22:42;9.90;;;9.00;;
1206;SDS011;593;53.184;8.216;2023-08-30T06:25:08;10.10;;;9.20;;
1206;SDS011;593;53.184;8.216;2023-08-30T06:27:33;11.53;;;9.57;;
1206;SDS011;593;53.184;8.216;2023-08-30T06:29:59;10.33;;;9.33;;
1206;SDS011;593;53.184;8.216;2023-08-30T06:32:24;11.07;;;9.63;;
1206;SDS011;593;53.184;8.216;2023-08-30T06:34:50;10.70;;;9.50;;
1206;SDS011;593;53.184;8.216;2023-08-30T06:37:15;9.87;;;8.87;;
1206;SDS011;593;53.184;8.216;2023-08-30T06:39:42;10.07;;;9.10;;
1206;SDS011;593;53.184;8.216;2023-08-30T06:42:07;11.17;;;10.03;;
1206;SDS011;593;53.184;8.216;2023-08-30T06:44:32;10.70;;;9.63;;
1206;SDS011;593;53.184;8.216;2023-08-30T06:46:58;10.27;;;9.37;;
1206;SDS011;593;53.184;8.216;2023-08-30T06:49:23;11.97;;;8.97;;
1206;SDS011;593;53.184;8.216;2023-08-30T06:51:49;10.27;;;9.30;;
1206;SDS011;593;53.184;8.216;2023-08-30T06:54:15;9.47;;;8.57;;
1206;SDS011;593;53.184;8.216;2023-08-30T06:56:40;9.07;;;8.17;;
1206;SDS011;593;53.184;8.216;2023-08-30T06:59:05;9.83;;;8.83;;
1206;SDS011;593;53.184;8.216;2023-08-30T07:01:31;10.70;;;9.60;;
1206;SDS011;593;53.184;8.216;2023-08-30T07:03:56;9.33;;;8.33;;
1206;SDS011;593;53.184;8.216;2023-08-30T07:06:22;10.23;;;8.63;;
1206;SDS011;593;53.184;8.216;2023-08-30T07:08:47;8.97;;;7.93;;
1206;SDS011;593;53.184;8.216;2023-08-30T07:11:12;10.63;;;9.57;;
1206;SDS011;593;53.184;8.216;2023-08-30T07:13:38;10.30;;;9.30;;
1206;SDS011;593;53.184;8.216;2023-08-30T07:16:03;11.47;;;9.13;;
1206;SDS011;593;53.184;8.216;2023-08-30T07:18:28;11.40;;;8.37;;
1206;SDS011;593;53.184;8.216;2023-08-30T07:20:54;9.10;;;8.20;;
1206;SDS011;593;53.184;8.216;2023-08-30T07:23:19;8.23;;;7.53;;
1206;SDS011;593;53.184;8.216;2023-08-30T07:25:44;8.97;;;8.07;;
1206;SDS011;593;53.184;8.216;2023-08-30T07:28:10;9.07;;;7.87;;
1206;SDS011;593;53.184;8.216;2023-08-30T07:30:36;8.70;;;7.80;;
1206;SDS011;593;53.184;8.216;2023-08-30T07:33:01;8.50;;;7.70;;
1206;SDS011;593;53.184;8.216;2023-08-30T07:35:28;9.07;;;7.23;;
1206;SDS011;593;53.184;8.216;2023-08-30T07:37:53;11.40;;;8.60;;
1206;SDS011;593;53.184;8.216;2023-08-30T07:40:19;9.20;;;7.90;;
1206;SDS011;593;53.184;8.216;2023-08-30T07:42:45;11.57;;;7.50;;
1206;SDS011;593;53.184;8.216;2023-08-30T07:45:11;9.37;;;6.87;;
1206;SDS011;593;53.184;8.216;2023-08-30T07:47:37;7.57;;;6.97;;
1206;SDS011;593;53.184;8.216;2023-08-30T07:50:04;8.60;;;7.80;;
1206;SDS011;593;53.184;8.216;2023-08-30T07:52:30;6.60;;;6.03;;
1206;SDS011;593;53.184;8.216;2023-08-30T07:54:55;6.60;;;5.80;;
1206;SDS011;593;53.184;8.216;2023-08-30T07:57:21;6.70;;;5.70;;
1206;SDS011;593;53.184;8.216;2023-08-30T07:59:46;6.00;;;5.40;;
1206;SDS011;593;53.184;8.216;2023-08-30T08:02:11;6.87;;;4.27;;
1206;SDS011;593;53.184;8.216;2023-08-30T08:04:37;6.83;;;5.67;;
1206;SDS011;593;53.184;8.216;2023-08-30T08:07:02;5.00;;;4.50;;
1206;SDS011;593;53.184;8.216;2023-08-30T08:09:29;7.17;;;5.60;;
1206;SDS011;593;53.184;8.216;2023-08-30T08:11:55;4.80;;;4.40;;
1206;SDS011;593;53.184;8.216;2023-08-30T08:14:21;5.30;;;4.80;;
1206;SDS011;593;53.184;8.216;2023-08-30T08:16:47;6.00;;;5.40;;
1206;SDS011;593;53.184;8.216;2023-08-30T08:19:13;6.20;;;5.60;;
1206;SDS011;593;53.184;8.216;2023-08-30T08:21:38;5.10;;;4.60;;
1206;SDS011;593;53.184;8.216;2023-08-30T08:24:04;5.90;;;5.30;;
1206;SDS011;593;53.184;8.216;2023-08-30T08:26:29;5.73;;;5.03;;
1206;SDS011;593;53.184;8.216;2023-08-30T08:28:54;9.03;;;4.97;;
1206;SDS011;593;53.184;8.216;2023-08-30T08:31:20;6.83;;;5.67;;
1206;SDS011;593;53.184;8.216;2023-08-30T08:33:46;5.97;;;5.30;;
1206;SDS011;593;53.184;8.216;2023-08-30T08:36:11;6.30;;;5.07;;
1206;SDS011;593;53.184;8.216;2023-08-30T08:38:37;6.53;;;5.93;;
1206;SDS011;593;53.184;8.216;2023-08-30T08:41:07;7.40;;;6.23;;
1206;SDS011;593;53.184;8.216;2023-08-30T08:43:35;8.27;;;6.07;;
1206;SDS011;593;53.184;8.216;2023-08-30T08:46:02;5.93;;;5.33;;
1206;SDS011;593;53.184;8.216;2023-08-30T08:48:31;8.30;;;6.63;;
1206;SDS011;593;53.184;8.216;2023-08-30T08:51:01;6.63;;;6.03;;
1206;SDS011;593;53.184;8.216;2023-08-30T08:53:26;6.63;;;6.03;;
1206;SDS011;593;53.184;8.216;2023-08-30T08:55:52;7.03;;;5.30;;
1206;SDS011;593;53.184;8.216;2023-08-30T08:58:20;6.67;;;5.90;;
1206;SDS011;593;53.184;8.216;2023-08-30T09:00:46;9.93;;;6.13;;
1206;SDS011;593;53.184;8.216;2023-08-30T09:03:11;9.27;;;5.40;;
1206;SDS011;593;53.184;8.216;2023-08-30T09:05:37;5.50;;;4.90;;
1206;SDS011;593;53.184;8.216;2023-08-30T09:08:04;7.27;;;6.17;;
1206;SDS011;593;53.184;8.216;2023-08-30T09:10:31;5.50;;;4.70;;
1206;SDS011;593;53.184;8.216;2023-08-30T09:12:59;7.47;;;5.87;;
1206;SDS011;593;53.184;8.216;2023-08-30T09:15:31;5.77;;;4.60;;
1206;SDS011;593;53.184;8.216;2023-08-30T09:17:57;7.40;;;5.43;;
1206;SDS011;593;53.184;8.216;2023-08-30T09:20:23;9.80;;;6.20;;
1206;SDS011;593;53.184;8.216;2023-08-30T09:22:48;7.53;;;5.60;;
1206;SDS011;593;53.184;8.216;2023-08-30T09:25:25;7.57;;;5.30;;
1206;SDS011;593;53.184;8.216;2023-08-30T09:27:58;5.73;;;5.20;;
1206;SDS011;593;53.184;8.216;2023-08-30T09:30:24;5.73;;;4.90;;
1206;SDS011;593;53.184;8.216;2023-08-30T09:32:50;5.70;;;5.10;;
1206;SDS011;593;53.184;8.216;2023-08-30T09:35:16;8.43;;;5.80;;
1206;SDS011;593;53.184;8.216;2023-08-30T09:37:43;5.00;;;4.60;;
1206;SDS011;593;53.184;8.216;2023-08-30T09:40:09;5.13;;;4.40;;
1206;SDS011;593;53.184;8.216;2023-08-30T09:42:39;8.43;;;5.27;;
1206;SDS011;593;53.184;8.216;2023-08-30T09:45:06;5.10;;;4.50;;
1206;SDS011;593;53.184;8.216;2023-08-30T09:47:45;5.80;;;5.30;;
1206;SDS011;593;53.184;8.216;2023-08-30T09:50:12;7.70;;;5.50;;
1206;SDS011;593;53.184;8.216;2023-08-30T09:52:39;6.17;;;5.30;;
1206;SDS011;593;53.184;8.216;2023-08-30T09:55:04;5.83;;;5.23;;
1206;SDS011;593;53.184;8.216;2023-08-30T09:57:30;7.10;;;5.00;;
1206;SDS011;593;53.184;8.216;2023-08-30T09:59:56;5.30;;;4.80;;
1206;SDS011;593;53.184;8.216;2023-08-30T10:02:22;6.07;;;5.50;;
1206;SDS011;593;53.184;8.216;2023-08-30T10:04:48;5.80;;;4.87;;
1206;SDS011;593;53.184;8.216;2023-08-30T10:07:15;7.20;;;5.07;;
1206;SDS011;593;53.184;8.216;2023-08-30T10:09:43;5.30;;;4.80;;
1206;SDS011;593;53.184;8.216;2023-08-30T10:12:09;5.30;;;4.80;;
1206;SDS011;593;53.184;8.216;2023-08-30T10:14:35;4.47;;;4.10;;
1206;SDS011;593;53.184;8.216;2023-08-30T10:17:01;4.47;;;4.00;;
1206;SDS011;593;53.184;8.216;2023-08-30T10:19:28;5.20;;;4.70;;
1206;SDS011;593;53.184;8.216;2023-08-30T10:22:04;6.83;;;4.47;;
1206;SDS011;593;53.184;8.216;2023-08-30T10:24:39;6.07;;;4.70;;
1206;SDS011;593;53.184;8.216;2023-08-30T10:27:26;6.00;;;4.37;;
1206;SDS011;593;53.184;8.216;2023-08-30T10:29:53;4.63;;;4.13;;
1206;SDS011;593;53.184;8.216;2023-08-30T10:32:22;4.77;;;4.13;;
1206;SDS011;593;53.184;8.216;2023-08-30T10:34:48;6.63;;;5.37;;
1206;SDS011;593;53.184;8.216;2023-08-30T10:37:15;5.53;;;5.03;;
1206;SDS011;593;53.184;8.216;2023-08-30T10:39:41;6.30;;;4.60;;
1206;SDS011;593;53.184;8.216;2023-08-30T10:42:11;7.17;;;4.43;;
1206;SDS011;593;53.184;8.216;2023-08-30T10:47:23;6.27;;;5.67;;
1206;SDS011;593;53.184;8.216;2023-08-30T10:49:54;6.10;;;5.50;;
1206;SDS011;593;53.184;8.216;2023-08-30T10:52:20;4.87;;;4.27;;
1206;SDS011;593;53.184;8.216;2023-08-30T10:54:46;3.93;;;3.17;;
1206;SDS011;593;53.184;8.216;2023-08-30T10:57:15;3.40;;;3.10;;
1206;SDS011;593;53.184;8.216;2023-08-30T11:02:29;5.00;;;3.60;;
1206;SDS011;593;53.184;8.216;2023-08-30T11:04:57;4.83;;;4.27;;
1206;SDS011;593;53.184;8.216;2023-08-30T11:07:27;3.60;;;3.30;;
1206;SDS011;593;53.184;8.216;2023-08-30T11:09:52;6.27;;;5.10;;
1206;SDS011;593;53.184;8.216;2023-08-30T11:12:18;6.50;;;4.60;;
1206;SDS011;593;53.184;8.216;2023-08-30T11:14:44;4.60;;;4.20;;
1206;SDS011;593;53.184;8.216;2023-08-30T11:17:09;4.80;;;3.43;;
1206;SDS011;593;53.184;8.216;2023-08-30T11:19:35;5.50;;;4.20;;
1206;SDS011;593;53.184;8.216;2023-08-30T11:22:00;6.00;;;5.50;;
1206;SDS011;593;53.184;8.216;2023-08-30T11:24:26;4.40;;;4.00;;
1206;SDS011;593;53.184;8.216;2023-08-30T11:26:54;4.80;;;4.20;;
1206;SDS011;593;53.184;8.216;2023-08-30T11:29:20;3.77;;;3.47;;
1206;SDS011;593;53.184;8.216;2023-08-30T11:31:45;4.60;;;3.30;;
1206;SDS011;593;53.184;8.216;2023-08-30T11:34:12;4.70;;;4.30;;
1206;SDS011;593;53.184;8.216;2023-08-30T11:36:37;4.80;;;4.30;;
1206;SDS011;593;53.184;8.216;2023-08-30T11:39:03;3.93;;;3.60;;
1206;SDS011;593;53.184;8.216;2023-08-30T11:41:29;5.83;;;5.23;;
1206;SDS011;593;53.184;8.216;2023-08-30T11:43:56;6.57;;;5.87;;
1206;SDS011;593;53.184;8.216;2023-08-30T11:46:23;5.93;;;5.43;;
1206;SDS011;593;53.184;8.216;2023-08-30T11:48:49;5.87;;;5.37;;
1206;SDS011;593;53.184;8.216;2023-08-30T11:51:16;5.97;;;5.47;;
1206;SDS011;593;53.184;8.216;2023-08-30T11:53:42;6.10;;;5.13;;
1206;SDS011;593;53.184;8.216;2023-08-30T11:56:08;5.90;;;4.03;;
1206;SDS011;593;53.184;8.216;2023-08-30T11:58:35;6.67;;;6.00;;
1206;SDS011;593;53.184;8.216;2023-08-30T12:01:01;5.57;;;5.00;;
1206;SDS011;593;53.184;8.216;2023-08-30T12:03:27;6.37;;;5.20;;
1206;SDS011;593;53.184;8.216;2023-08-30T12:05:53;5.77;;;5.27;;
1206;SDS011;593;53.184;8.216;2023-08-30T12:08:26;5.53;;;5.10;;
1206;SDS011;593;53.184;8.216;2023-08-30T12:10:55;7.00;;;5.60;;
1206;SDS011;593;53.184;8.216;2023-08-30T12:13:25;4.97;;;4.57;;
1206;SDS011;593;53.184;8.216;2023-08-30T12:15:52;6.33;;;5.83;;
1206;SDS011;593;53.184;8.216;2023-08-30T12:18:24;6.83;;;5.80;;
1206;SDS011;593;53.184;8.216;2023-08-30T12:20:57;5.70;;;5.20;;
1206;SDS011;593;53.184;8.216;2023-08-30T12:23:27;5.57;;;5.07;;
1206;SDS011;593;53.184;8.216;2023-08-30T12:28:32;4.53;;;4.10;;
1206;SDS011;593;53.184;8.216;2023-08-30T12:30:59;4.50;;;4.10;;
1206;SDS011;593;53.184;8.216;2023-08-30T12:33:25;4.90;;;4.40;;
1206;SDS011;593;53.184;8.216;2023-08-30T12:35:51;4.60;;;4.20;;
1206;SDS011;593;53.184;8.216;2023-08-30T12:38:16;6.50;;;5.90;;
1206;SDS011;593;53.184;8.216;2023-08-30T12:40:45;6.73;;;6.03;;
1206;SDS011;593;53.184;8.216;2023-08-30T12:43:12;4.93;;;4.53;;
1206;SDS011;593;53.184;8.216;2023-08-30T12:45:39;5.47;;;4.80;;
1206;SDS011;593;53.184;8.216;2023-08-30T12:48:05;6.70;;;6.10;;
1206;SDS011;593;53.184;8.216;2023-08-30T12:50:31;8.07;;;7.27;;
1206;SDS011;593;53.184;8.216;2023-08-30T12:52:56;7.67;;;6.97;;
1206;SDS011;593;53.184;8.216;2023-08-30T12:55:21;6.70;;;6.10;;
1206;SDS011;593;53.184;8.216;2023-08-30T12:57:47;8.33;;;7.63;;
1206;SDS011;593;53.184;8.216;2023-08-30T13:00:13;9.60;;;7.80;;
1206;SDS011;593;53.184;8.216;2023-08-30T13:02:38;12.63;;;8.83;;
1206;SDS011;593;53.184;8.216;2023-08-30T13:05:04;8.00;;;7.23;;
1206;SDS011;593;53.184;8.216;2023-08-30T13:07:30;9.13;;;8.30;;
1206;SDS011;593;53.184;8.216;2023-08-30T13:09:55;9.40;;;8.50;;
1206;SDS011;593;53.184;8.216;2023-08-30T13:12:20;11.43;;;10.33;;
1206;SDS011;593;53.184;8.216;2023-08-30T13:14:46;12.70;;;10.03;;
1206;SDS011;593;53.184;8.216;2023-08-30T13:17:11;11.17;;;10.20;;
1206;SDS011;593;53.184;8.216;2023-08-30T13:19:37;13.80;;;11.20;;
1206;SDS011;593;53.184;8.216;2023-08-30T13:22:02;12.10;;;10.93;;
1206;SDS011;593;53.184;8.216;2023-08-30T13:24:27;14.10;;;11.90;;
1206;SDS011;593;53.184;8.216;2023-08-30T13:26:53;13.10;;;11.80;;
1206;SDS011;593;53.184;8.216;2023-08-30T13:29:18;12.23;;;11.00;;
1206;SDS011;593;53.184;8.216;2023-08-30T13:31:43;14.47;;;12.27;;
1206;SDS011;593;53.184;8.216;2023-08-30T13:34:09;13.00;;;11.70;;
1206;SDS011;593;53.184;8.216;2023-08-30T13:36:34;12.50;;;11.23;;
1206;SDS011;593;53.184;8.216;2023-08-30T13:39:01;14.53;;;12.20;;
1206;SDS011;593;53.184;8.216;2023-08-30T13:41:27;14.73;;;13.23;;
1206;SDS011;593;53.184;8.216;2023-08-30T13:43:53;15.10;;;12.37;;
1206;SDS011;593;53.184;8.216;2023-08-30T13:46:18;16.00;;;14.00;;
1206;SDS011;593;53.184;8.216;2023-08-30T13:48:44;12.83;;;11.70;;
1206;SDS011;593;53.184;8.216;2023-08-30T13:51:10;15.03;;;12.30;;
1206;SDS011;593;53.184;8.216;2023-08-30T13:53:36;14.33;;;12.90;;
1206;SDS011;593;53.184;8.216;2023-08-30T13:56:01;13.60;;;12.20;;
1206;SDS011;593;53.184;8.216;2023-08-30T13:58:27;13.70;;;12.40;;
1206;SDS011;593;53.184;8.216;2023-08-30T14:00:52;14.40;;;13.00;;
1206;SDS011;593;53.184;8.216;2023-08-30T14:03:17;15.03;;;13.23;;
1206;SDS011;593;53.184;8.216;2023-08-30T14:05:43;15.33;;;13.73;;
1206;SDS011;593;53.184;8.216;2023-08-30T14:08:08;15.77;;;14.17;;
1206;SDS011;593;53.184;8.216;2023-08-30T14:10:34;16.10;;;14.37;;
1206;SDS011;593;53.184;8.216;2023-08-30T14:12:59;15.73;;;14.13;;
1206;SDS011;593;53.184;8.216;2023-08-30T14:15:24;16.63;;;14.40;;
1206;SDS011;593;53.184;8.216;2023-08-30T14:17:50;17.83;;;16.10;;
1206;SDS011;593;53.184;8.216;2023-08-30T14:20:15;16.80;;;15.07;;
1206;SDS011;593;53.184;8.216;2023-08-30T14:22:40;19.00;;;17.00;;
1206;SDS011;593;53.184;8.216;2023-08-30T14:25:06;14.97;;;13.53;;
1206;SDS011;593;53.184;8.216;2023-08-30T14:27:31;17.67;;;15.87;;
1206;SDS011;593;53.184;8.216;2023-08-30T14:29:57;15.83;;;14.27;;
1206;SDS011;593;53.184;8.216;2023-08-30T14:32:22;17.37;;;15.77;;
1206;SDS011;593;53.184;8.216;2023-08-30T14:34:47;16.40;;;14.73;;
1206;SDS011;593;53.184;8.216;2023-08-30T14:37:13;15.90;;;14.33;;
1206;SDS011;593;53.184;8.216;2023-08-30T14:39:41;16.27;;;14.57;;
1206;SDS011;593;53.184;8.216;2023-08-30T14:42:07;15.87;;;13.90;;
1206;SDS011;593;53.184;8.216;2023-08-30T14:44:32;15.57;;;14.13;;
1206;SDS011;593;53.184;8.216;2023-08-30T14:46:57;16.13;;;14.53;;
1206;SDS011;593;53.184;8.216;2023-08-30T14:49:26;14.17;;;12.70;;
1206;SDS011;593;53.184;8.216;2023-08-30T14:51:51;14.90;;;13.50;;
1206;SDS011;593;53.184;8.216;2023-08-30T14:54:16;14.13;;;11.77;;
1206;SDS011;593;53.184;8.216;2023-08-30T14:56:42;11.83;;;10.73;;
1206;SDS011;593;53.184;8.216;2023-08-30T14:59:07;12.13;;;10.93;;
1206;SDS011;593;53.184;8.216;2023-08-30T15:01:32;11.93;;;10.83;;
1206;SDS011;593;53.184;8.216;2023-08-30T15:03:57;12.57;;;11.37;;
1206;SDS011;593;53.184;8.216;2023-08-30T15:06:23;11.50;;;10.40;;
1206;SDS011;593;53.184;8.216;2023-08-30T15:08:48;12.00;;;10.90;;
1206;SDS011;593;53.184;8.216;2023-08-30T15:11:14;12.20;;;11.10;;
1206;SDS011;593;53.184;8.216;2023-08-30T15:13:39;10.93;;;9.93;;
1206;SDS011;593;53.184;8.216;2023-08-30T15:16:04;11.63;;;10.63;;
1206;SDS011;593;53.184;8.216;2023-08-30T15:18:30;13.57;;;12.27;;
1206;SDS011;593;53.184;8.216;2023-08-30T15:20:55;11.83;;;10.83;;
1206;SDS011;593;53.184;8.216;2023-08-30T15:23:21;11.10;;;10.10;;
1206;SDS011;593;53.184;8.216;2023-08-30T15:25:47;11.63;;;10.40;;
1206;SDS011;593;53.184;8.216;2023-08-30T15:28:13;11.83;;;10.63;;
1206;SDS011;593;53.184;8.216;2023-08-30T15:30:46;11.70;;;10.60;;